Time;durP1;ratioP1;P1;durP2;ratioP2;P2;SDS_P1;SDS_P2;PMS_P1;PMS_P2;Temp;Humidity;BMP_temperature;BMP_pressure;BME280_temperature;BME280_humidity;BME280_pressure;Samples;Min_cycle;Max_cycle;Signal;HPM_P1;HPM_P2
2023/06/29 00:14:49;;;;;;;17.67;11.65;;;19.80;1.00;;;;;;20750875;28;20062;-39
2023/06/29 00:25:10;;;;;;;18.42;11.98;;;19.80;1.00;;;;;;20712631;28;20033;-39
2023/06/29 00:35:32;;;;;;;17.25;10.02;;;19.70;1.00;;;;;;20721323;28;20080;-39
2023/06/29 00:45:54;;;;;;;18.88;12.13;;;19.80;1.00;;;;;;20710169;28;20048;-39
2023/06/29 00:56:15;;;;;;;17.33;11.73;;;19.80;1.00;;;;;;20691599;28;20077;-39
2023/06/29 01:06:44;;;;;;;16.17;10.68;;;19.80;1.00;;;;;;20712581;28;20081;-39
2023/06/29 01:17:11;;;;;;;16.95;11.27;;;19.80;1.00;;;;;;20714017;28;20050;-39
2023/06/29 01:27:36;;;;;;;15.00;9.88;;;19.70;1.00;;;;;;20707168;28;20045;-39
2023/06/29 01:38:01;;;;;;;16.27;10.60;;;19.60;1.00;;;;;;20711084;28;20075;-39
2023/06/29 01:48:23;;;;;;;17.98;11.35;;;19.60;1.00;;;;;;20711596;28;20182;-39
2023/06/29 01:58:44;;;;;;;20.13;12.93;;;19.60;3.30;;;;;;20708227;28;20128;-39
2023/06/29 02:09:06;;;;;;;22.40;12.98;;;19.60;8.10;;;;;;20707735;28;20044;-39
2023/06/29 02:19:27;;;;;;;17.58;12.23;;;19.60;7.00;;;;;;20708565;28;20079;-39
2023/06/29 02:29:48;;;;;;;21.50;13.77;;;19.60;9.30;;;;;;20705738;28;20096;-39
2023/06/29 02:40:10;;;;;;;24.17;14.35;;;19.60;12.30;;;;;;20698190;28;20033;-39
2023/06/29 02:50:31;;;;;;;24.92;14.40;;;19.50;20.60;;;;;;20677189;28;20044;-39
2023/06/29 03:00:53;;;;;;;22.35;14.90;;;19.50;19.00;;;;;;20699578;28;20120;-39
2023/06/29 03:11:14;;;;;;;25.48;15.63;;;19.50;36.60;;;;;;20693676;28;20124;-39
2023/06/29 03:21:35;;;;;;;26.42;17.02;;;19.40;50.30;;;;;;20686607;28;20034;-39
2023/06/29 03:31:59;;;;;;;23.70;16.25;;;19.50;55.30;;;;;;20701951;28;20061;-39
2023/06/29 03:42:21;;;;;;;32.20;19.48;;;19.40;73.90;;;;;;20718887;28;20037;-39
2023/06/29 03:52:42;;;;;;;28.40;18.95;;;19.30;91.50;;;;;;20722832;28;20545;-40
2023/06/29 04:03:04;;;;;;;32.60;18.92;;;19.40;86.30;;;;;;20720283;28;20149;-40
2023/06/29 04:13:25;;;;;;;33.65;19.95;;;19.30;93.70;;;;;;20714904;28;20133;-40
2023/06/29 04:23:46;;;;;;;32.05;20.00;;;19.30;99.90;;;;;;20713468;28;20835;-40
2023/06/29 04:34:08;;;;;;;27.05;17.48;;;19.30;99.90;;;;;;20716688;28;20081;-40
2023/06/29 04:44:32;;;;;;;29.98;19.70;;;19.20;99.90;;;;;;20717144;28;20045;-40
2023/06/29 04:54:53;;;;;;;32.95;19.25;;;19.30;99.90;;;;;;20711701;28;20647;-40
2023/06/29 05:05:14;;;;;;;28.63;17.40;;;19.30;99.90;;;;;;20713836;28;20033;-40
2023/06/29 05:15:36;;;;;;;26.48;17.00;;;19.40;99.90;;;;;;20710389;28;21779;-40
2023/06/29 05:25:57;;;;;;;29.30;17.27;;;19.30;99.90;;;;;;20712047;28;20092;-40
2023/06/29 05:36:20;;;;;;;26.90;17.00;;;19.40;91.80;;;;;;20706038;28;20524;-40
2023/06/29 05:46:41;;;;;;;31.70;18.77;;;19.40;98.50;;;;;;20699506;28;20037;-40
2023/06/29 05:57:03;;;;;;;32.47;19.17;;;19.40;90.60;;;;;;20700934;28;20069;-40
2023/06/29 06:07:31;;;;;;;30.33;18.95;;;19.40;83.80;;;;;;20705430;28;20430;-39
2023/06/29 06:17:52;;;;;;;31.27;18.20;;;19.40;91.20;;;;;;20704431;28;20548;-40
2023/06/29 06:28:13;;;;;;;28.75;17.90;;;19.40;52.10;;;;;;20692541;28;20056;-40
2023/06/29 06:38:35;;;;;;;28.00;18.45;;;19.50;43.10;;;;;;20700936;28;20053;-40
2023/06/29 06:48:56;;;;;;;30.10;18.50;;;19.60;12.00;;;;;;20709635;28;20037;-39
2023/06/29 06:59:17;;;;;;;28.90;18.90;;;19.80;1.00;;;;;;20703609;28;20181;-40
2023/06/29 07:09:39;;;;;;;33.72;20.98;;;19.70;1.00;;;;;;20719775;28;20049;-40
2023/06/29 07:20:00;;;;;;;33.15;20.65;;;19.80;1.00;;;;;;20802091;28;20426;-40
2023/06/29 07:30:22;;;;;;;39.58;23.38;;;19.90;1.00;;;;;;20808777;28;20061;-39
2023/06/29 07:40:43;;;;;;;39.25;23.35;;;20.10;1.00;;;;;;20804029;28;20042;-40
2023/06/29 07:51:05;;;;;;;38.55;24.08;;;20.20;1.00;;;;;;20806469;28;20056;-40
2023/06/29 08:01:27;;;;;;;39.80;25.45;;;20.20;1.00;;;;;;20803862;28;20032;-40
2023/06/29 08:11:48;;;;;;;37.45;24.23;;;20.40;1.00;;;;;;20783497;28;20066;-40
2023/06/29 08:22:09;;;;;;;36.53;23.98;;;20.50;1.00;;;;;;20713263;28;20040;-40
2023/06/29 08:32:31;;;;;;;31.98;20.92;;;20.50;1.00;;;;;;20705041;28;20046;-40
2023/06/29 08:42:52;;;;;;;38.53;24.88;;;20.60;1.00;;;;;;20709660;28;20030;-40
2023/06/29 08:53:14;;;;;;;35.30;22.98;;;21.00;1.00;;;;;;20714615;28;20076;-40
2023/06/29 09:03:36;;;;;;;34.42;24.38;;;21.50;1.00;;;;;;20713356;28;20458;-40
2023/06/29 09:13:57;;;;;;;34.25;22.13;;;21.70;1.00;;;;;;20704553;28;20088;-40
2023/06/29 09:24:19;;;;;;;29.45;19.92;;;22.00;1.00;;;;;;20694117;28;20049;-40
2023/06/29 09:34:45;;;;;;;29.65;20.48;;;22.10;1.00;;;;;;20703149;28;20042;-40
2023/06/29 09:45:15;;;;;;;27.85;20.98;;;22.20;1.00;;;;;;20702864;28;20033;-40
2023/06/29 09:55:38;;;;;;;31.40;22.70;;;21.90;1.00;;;;;;20706772;28;20070;-40
2023/06/29 10:06:11;;;;;;;31.02;21.13;;;21.80;1.00;;;;;;20709430;28;20561;-40
2023/06/29 10:16:36;;;;;;;26.63;19.45;;;22.10;1.00;;;;;;20711366;28;20076;-40
2023/06/29 10:26:58;;;;;;;27.77;21.17;;;22.40;1.00;;;;;;20563992;28;181919;-40
2023/06/29 10:37:37;;;;;;;30.50;20.30;;;22.50;1.00;;;;;;20695455;28;20046;-40
2023/06/29 10:47:58;;;;;;;;;;;22.80;1.00;;;;;;20713105;28;20064;-40
2023/06/29 10:58:24;;;;;;;21.65;16.63;;;23.10;1.00;;;;;;20707443;28;19925;-40
2023/06/29 11:08:47;;;;;;;23.90;16.98;;;23.20;1.00;;;;;;20695152;28;20081;-40
2023/06/29 11:19:10;;;;;;;23.75;16.67;;;23.40;1.00;;;;;;20694294;28;20435;-40
2023/06/29 11:29:32;;;;;;;25.67;15.23;;;23.00;1.00;;;;;;20689502;28;20041;-40
2023/06/29 11:39:53;;;;;;;21.38;14.40;;;22.40;1.00;;;;;;20683662;28;20461;-40
2023/06/29 11:50:15;;;;;;;21.42;12.55;;;22.10;1.00;;;;;;20684364;28;20211;-40
2023/06/29 12:00:36;;;;;;;16.33;11.65;;;22.70;1.00;;;;;;20708434;28;20112;-40
2023/06/29 12:11:03;;;;;;;17.52;11.27;;;22.90;1.00;;;;;;20716380;28;20100;-40
2023/06/29 12:21:24;;;;;;;18.92;12.88;;;22.70;1.00;;;;;;20717417;28;20996;-40
2023/06/29 12:31:46;;;;;;;24.35;14.48;;;22.70;1.00;;;;;;20696795;28;20061;-40
2023/06/29 12:42:07;;;;;;;21.33;14.27;;;22.90;1.00;;;;;;20699259;28;20456;-40
2023/06/29 12:52:28;;;;;;;19.80;13.02;;;23.00;1.00;;;;;;20688309;28;20048;-40
2023/06/29 13:02:52;;;;;;;21.60;13.82;;;23.00;1.00;;;;;;20673586;28;20080;-41
2023/06/29 13:13:14;;;;;;;21.30;12.95;;;23.20;1.00;;;;;;20696754;28;20072;-40
2023/06/29 13:23:35;;;;;;;18.33;11.82;;;23.10;1.00;;;;;;20651597;28;20060;-40
2023/06/29 13:33:57;;;;;;;17.42;10.50;;;23.00;1.00;;;;;;20689216;28;20617;-40
2023/06/29 13:44:18;;;;;;;17.55;10.65;;;23.30;1.00;;;;;;20682437;28;20722;-41
2023/06/29 13:54:40;;;;;;;16.83;11.00;;;23.50;1.00;;;;;;20686248;28;20080;-41
2023/06/29 14:05:01;;;;;;;18.73;11.35;;;23.80;1.00;;;;;;20695268;28;20061;-41
2023/06/29 14:15:03;;;;;;;23.80;14.57;;;23.60;1.00;;;;;;20704245;28;20395;-41
2023/06/29 14:25:04;;;;;;;24.55;14.77;;;23.30;1.00;;;;;;20688965;28;20466;-41
2023/06/29 14:35:06;;;;;;;13.65;8.95;;;22.90;1.00;;;;;;20688051;28;20350;-41
2023/06/29 14:45:07;;;;;;;9.98;6.60;;;22.60;1.00;;;;;;20694998;28;20047;-41
2023/06/29 14:55:08;;;;;;;7.82;4.38;;;22.50;1.00;;;;;;20705487;28;20045;-41
2023/06/29 15:05:09;;;;;;;4.20;2.85;;;22.40;1.00;;;;;;20702633;28;20037;-41
2023/06/29 15:15:11;;;;;;;4.80;2.70;;;21.90;1.00;;;;;;20700940;28;20202;-41
2023/06/29 15:25:12;;;;;;;2.10;0.90;;;21.70;1.00;;;;;;20704585;28;20045;-41
2023/06/29 15:35:13;;;;;;;4.80;1.92;;;21.40;1.00;;;;;;20714631;28;20037;-40
2023/06/29 15:45:14;;;;;;;4.45;1.05;;;21.10;1.00;;;;;;20717333;28;20029;-41
2023/06/29 15:55:15;;;;;;;4.75;0.98;;;20.60;1.00;;;;;;20709679;28;20533;-41
2023/06/29 16:05:17;;;;;;;2.95;0.90;;;20.40;1.00;;;;;;20711723;28;20045;-41
2023/06/29 16:15:18;;;;;;;3.40;0.90;;;20.00;1.00;;;;;;20710885;28;20187;-41
2023/06/29 16:25:23;;;;;;;4.55;1.00;;;19.50;1.00;;;;;;20721217;28;20561;-41
2023/06/29 16:35:24;;;;;;;1.92;1.00;;;19.40;1.00;;;;;;20727792;28;20080;-41
2023/06/29 16:45:26;;;;;;;1.20;0.50;;;19.20;1.00;;;;;;20711597;28;20094;-41
2023/06/29 16:55:27;;;;;;;1.17;0.45;;;19.00;1.00;;;;;;20709104;28;20497;-41
2023/06/29 17:05:30;;;;;;;1.42;0.60;;;18.90;1.00;;;;;;20710379;28;20041;-41
2023/06/29 17:15:31;;;;;;;1.17;0.63;;;18.90;1.00;;;;;;20712445;28;20061;-41
2023/06/29 17:25:32;;;;;;;5.82;1.30;;;18.80;1.00;;;;;;20703434;28;20041;-41
2023/06/29 17:35:33;;;;;;;3.08;1.17;;;18.60;1.00;;;;;;20703273;28;20034;-41
2023/06/29 17:45:35;;;;;;;2.92;1.02;;;18.20;1.00;;;;;;20718289;28;20117;-41
2023/06/29 17:55:36;;;;;;;4.85;2.03;;;17.90;1.00;;;;;;20715816;28;21549;-41
2023/06/29 18:05:37;;;;;;;4.78;1.70;;;17.80;1.00;;;;;;20716559;28;20168;-41
2023/06/29 18:15:38;;;;;;;3.15;0.90;;;17.80;1.00;;;;;;20710585;28;20132;-41
2023/06/29 18:25:39;;;;;;;4.53;1.00;;;17.70;1.00;;;;;;20711329;28;20042;-40
2023/06/29 18:35:40;;;;;;;3.72;0.93;;;17.70;1.00;;;;;;20711783;28;20046;-41
2023/06/29 18:45:41;;;;;;;4.47;1.13;;;17.60;1.00;;;;;;20711932;28;20045;-41
2023/06/29 18:55:42;;;;;;;4.50;1.58;;;17.50;1.00;;;;;;20705034;28;20546;-41
2023/06/29 19:05:43;;;;;;;4.70;1.20;;;17.50;1.00;;;;;;20727912;28;20107;-40
2023/06/29 19:15:46;;;;;;;6.93;1.70;;;17.60;1.00;;;;;;20729996;28;20398;-41
2023/06/29 19:25:47;;;;;;;4.63;1.50;;;17.80;1.00;;;;;;20713228;28;20033;-40
2023/06/29 19:35:48;;;;;;;6.82;2.63;;;17.80;1.00;;;;;;20726814;28;20042;-40
2023/06/29 19:45:51;;;;;;;6.63;2.65;;;17.70;1.00;;;;;;20732497;28;20033;-40
2023/06/29 19:55:52;;;;;;;4.32;1.67;;;17.90;1.00;;;;;;20731286;28;21436;-40
2023/06/29 20:05:53;;;;;;;6.43;1.80;;;17.70;1.00;;;;;;20727502;28;20029;-40
2023/06/29 20:15:54;;;;;;;8.38;2.10;;;17.60;1.00;;;;;;20725389;28;20107;-40
2023/06/29 20:25:56;;;;;;;6.70;2.08;;;17.50;1.00;;;;;;20717249;28;20089;-40
2023/06/29 20:35:57;;;;;;;8.07;1.90;;;17.50;1.00;;;;;;20714656;28;20152;-40
2023/06/29 20:45:58;;;;;;;6.72;2.00;;;17.40;1.00;;;;;;20719982;28;20500;-40
2023/06/29 20:55:59;;;;;;;6.15;2.60;;;17.20;1.00;;;;;;20716435;28;20049;-40
2023/06/29 21:06:00;;;;;;;5.63;2.00;;;17.10;1.00;;;;;;20712203;28;20428;-41
2023/06/29 21:16:01;;;;;;;8.40;2.72;;;16.90;1.00;;;;;;20718375;28;20095;-40
2023/06/29 21:26:03;;;;;;;6.95;2.83;;;16.90;1.00;;;;;;20714286;28;20083;-41
2023/06/29 21:36:04;;;;;;;6.30;2.92;;;16.80;1.00;;;;;;20710562;28;20099;-40
2023/06/29 21:46:06;;;;;;;7.35;2.70;;;16.60;1.00;;;;;;20710768;28;20103;-41
2023/06/29 21:56:07;;;;;;;8.45;2.25;;;16.40;1.00;;;;;;20708328;28;20054;-41
2023/06/29 22:06:09;;;;;;;5.43;1.98;;;16.30;1.00;;;;;;20705341;28;20033;-41
2023/06/29 22:16:10;;;;;;;6.10;1.92;;;16.20;1.00;;;;;;20708240;28;20197;-40
2023/06/29 22:26:11;;;;;;;6.72;2.17;;;16.00;1.00;;;;;;20710087;28;20042;-41
2023/06/29 22:36:13;;;;;;;6.63;2.60;;;15.80;1.00;;;;;;20699011;28;20095;-40
2023/06/29 22:46:14;;;;;;;6.32;3.13;;;15.60;1.00;;;;;;20703003;28;20033;-40
2023/06/29 22:56:15;;;;;;;6.40;2.50;;;15.40;1.00;;;;;;20706888;28;20052;-41
2023/06/29 23:06:16;;;;;;;10.00;3.08;;;15.30;1.00;;;;;;20699943;28;20452;-41
2023/06/29 23:16:17;;;;;;;6.15;2.60;;;15.20;1.00;;;;;;20702838;28;20103;-41
2023/06/29 23:26:21;;;;;;;5.85;3.00;;;15.00;1.00;;;;;;20697877;28;20049;-41
2023/06/29 23:36:23;;;;;;;5.60;3.08;;;15.00;1.00;;;;;;20698226;28;20103;-41
2023/06/29 23:46:25;;;;;;;6.82;2.70;;;14.90;1.00;;;;;;20704128;28;20111;-41
2023/06/29 23:56:26;;;;;;;7.60;2.80;;;14.80;1.00;;;;;;20712909;28;20042;-41
